sensor_id;sensor_type;location;lat;lon;timestamp;P1;durP1;ratioP1;P2;durP2;ratioP2
52067;SDS011;60237;52.338;21.228;2023-09-08T00:02:12;735.42;;;649.53;;
52067;SDS011;60237;52.338;21.228;2023-09-08T00:04:38;732.92;;;652.83;;
52067;SDS011;60237;52.338;21.228;2023-09-08T00:07:05;747.85;;;645.03;;
52067;SDS011;60237;52.338;21.228;2023-09-08T00:09:32;723.28;;;638.83;;
52067;SDS011;60237;52.338;21.228;2023-09-08T00:11:58;712.17;;;631.80;;
52067;SDS011;60237;52.338;21.228;2023-09-08T00:14:25;734.45;;;636.28;;
52067;SDS011;60237;52.338;21.228;2023-09-08T00:16:52;736.25;;;646.80;;
52067;SDS011;60237;52.338;21.228;2023-09-08T00:19:21;715.58;;;635.72;;
52067;SDS011;60237;52.338;21.228;2023-09-08T00:21:48;747.45;;;641.80;;
52067;SDS011;60237;52.338;21.228;2023-09-08T00:24:15;731.40;;;626.72;;
52067;SDS011;60237;52.338;21.228;2023-09-08T00:26:42;714.10;;;623.88;;
52067;SDS011;60237;52.338;21.228;2023-09-08T00:29:08;725.55;;;634.10;;
52067;SDS011;60237;52.338;21.228;2023-09-08T00:31:35;719.55;;;631.65;;
52067;SDS011;60237;52.338;21.228;2023-09-08T00:34:02;726.58;;;630.00;;
52067;SDS011;60237;52.338;21.228;2023-09-08T00:36:28;718.15;;;636.92;;
52067;SDS011;60237;52.338;21.228;2023-09-08T00:38:55;729.53;;;634.67;;
52067;SDS011;60237;52.338;21.228;2023-09-08T00:41:22;708.10;;;630.05;;
52067;SDS011;60237;52.338;21.228;2023-09-08T00:43:50;723.63;;;642.92;;
52067;SDS011;60237;52.338;21.228;2023-09-08T00:46:17;747.42;;;624.95;;
52067;SDS011;60237;52.338;21.228;2023-09-08T00:48:43;736.78;;;634.55;;
52067;SDS011;60237;52.338;21.228;2023-09-08T00:51:10;717.47;;;628.72;;
52067;SDS011;60237;52.338;21.228;2023-09-08T00:53:37;730.30;;;640.58;;
52067;SDS011;60237;52.338;21.228;2023-09-08T00:56:04;719.95;;;641.17;;
52067;SDS011;60237;52.338;21.228;2023-09-08T00:58:31;730.20;;;642.88;;
52067;SDS011;60237;52.338;21.228;2023-09-08T01:00:58;734.20;;;644.40;;
52067;SDS011;60237;52.338;21.228;2023-09-08T01:03:25;725.63;;;646.38;;
52067;SDS011;60237;52.338;21.228;2023-09-08T01:05:52;722.17;;;640.80;;
52067;SDS011;60237;52.338;21.228;2023-09-08T01:08:19;719.33;;;637.38;;
52067;SDS011;60237;52.338;21.228;2023-09-08T01:10:47;720.70;;;639.45;;
52067;SDS011;60237;52.338;21.228;2023-09-08T01:13:14;729.75;;;639.17;;
52067;SDS011;60237;52.338;21.228;2023-09-08T01:15:40;750.15;;;641.13;;
52067;SDS011;60237;52.338;21.228;2023-09-08T01:18:07;724.83;;;635.25;;
52067;SDS011;60237;52.338;21.228;2023-09-08T01:26:08;704.47;;;625.63;;
52067;SDS011;60237;52.338;21.228;2023-09-08T01:28:36;724.08;;;635.08;;
52067;SDS011;60237;52.338;21.228;2023-09-08T01:31:04;762.33;;;652.83;;
52067;SDS011;60237;52.338;21.228;2023-09-08T01:33:31;731.53;;;646.20;;
52067;SDS011;60237;52.338;21.228;2023-09-08T01:35:58;726.53;;;647.53;;
52067;SDS011;60237;52.338;21.228;2023-09-08T01:38:25;717.17;;;638.05;;
52067;SDS011;60237;52.338;21.228;2023-09-08T01:40:51;718.90;;;635.42;;
52067;SDS011;60237;52.338;21.228;2023-09-08T01:43:18;725.63;;;636.97;;
52067;SDS011;60237;52.338;21.228;2023-09-08T01:45:45;712.70;;;629.63;;
52067;SDS011;60237;52.338;21.228;2023-09-08T01:48:11;717.08;;;637.85;;
52067;SDS011;60237;52.338;21.228;2023-09-08T01:50:38;729.90;;;642.38;;
52067;SDS011;60237;52.338;21.228;2023-09-08T01:53:04;722.08;;;636.30;;
52067;SDS011;60237;52.338;21.228;2023-09-08T01:55:31;706.45;;;628.35;;
52067;SDS011;60237;52.338;21.228;2023-09-08T01:57:57;749.65;;;651.20;;
52067;SDS011;60237;52.338;21.228;2023-09-08T02:06:15;708.17;;;603.65;;
52067;SDS011;60237;52.338;21.228;2023-09-08T02:08:42;706.00;;;623.58;;
52067;SDS011;60237;52.338;21.228;2023-09-08T02:11:08;715.33;;;625.05;;
52067;SDS011;60237;52.338;21.228;2023-09-08T02:13:36;713.35;;;629.65;;
52067;SDS011;60237;52.338;21.228;2023-09-08T02:16:02;710.05;;;626.60;;
52067;SDS011;60237;52.338;21.228;2023-09-08T02:18:29;714.92;;;636.78;;
52067;SDS011;60237;52.338;21.228;2023-09-08T02:20:56;720.38;;;641.13;;
52067;SDS011;60237;52.338;21.228;2023-09-08T02:23:22;714.00;;;636.88;;
52067;SDS011;60237;52.338;21.228;2023-09-08T02:25:49;721.05;;;636.03;;
52067;SDS011;60237;52.338;21.228;2023-09-08T02:28:16;728.70;;;642.75;;
52067;SDS011;60237;52.338;21.228;2023-09-08T02:30:43;767.05;;;653.50;;
52067;SDS011;60237;52.338;21.228;2023-09-08T02:33:09;787.42;;;651.85;;
52067;SDS011;60237;52.338;21.228;2023-09-08T02:35:37;740.70;;;644.35;;
52067;SDS011;60237;52.338;21.228;2023-09-08T02:38:05;725.97;;;645.55;;
52067;SDS011;60237;52.338;21.228;2023-09-08T02:40:32;729.83;;;642.95;;
52067;SDS011;60237;52.338;21.228;2023-09-08T02:43:02;741.97;;;643.95;;
52067;SDS011;60237;52.338;21.228;2023-09-08T02:45:29;717.50;;;639.95;;
52067;SDS011;60237;52.338;21.228;2023-09-08T02:47:57;733.42;;;653.70;;
52067;SDS011;60237;52.338;21.228;2023-09-08T02:50:24;742.58;;;661.00;;
52067;SDS011;60237;52.338;21.228;2023-09-08T02:52:50;722.70;;;643.03;;
52067;SDS011;60237;52.338;21.228;2023-09-08T02:55:17;853.67;;;640.38;;
52067;SDS011;60237;52.338;21.228;2023-09-08T02:57:43;831.70;;;651.20;;
52067;SDS011;60237;52.338;21.228;2023-09-08T03:00:10;800.60;;;645.20;;
52067;SDS011;60237;52.338;21.228;2023-09-08T03:02:37;766.42;;;654.90;;
52067;SDS011;60237;52.338;21.228;2023-09-08T03:05:04;720.58;;;630.83;;
52067;SDS011;60237;52.338;21.228;2023-09-08T03:07:31;711.75;;;634.28;;
52067;SDS011;60237;52.338;21.228;2023-09-08T03:10:00;737.55;;;648.22;;
52067;SDS011;60237;52.338;21.228;2023-09-08T03:12:26;730.53;;;645.85;;
52067;SDS011;60237;52.338;21.228;2023-09-08T03:14:54;717.13;;;638.50;;
52067;SDS011;60237;52.338;21.228;2023-09-08T03:17:21;719.13;;;640.03;;
52067;SDS011;60237;52.338;21.228;2023-09-08T03:19:48;715.60;;;633.13;;
52067;SDS011;60237;52.338;21.228;2023-09-08T03:22:14;729.75;;;632.83;;
52067;SDS011;60237;52.338;21.228;2023-09-08T03:24:41;716.05;;;631.22;;
52067;SDS011;60237;52.338;21.228;2023-09-08T03:27:08;716.58;;;632.05;;
52067;SDS011;60237;52.338;21.228;2023-09-08T03:29:35;702.83;;;625.40;;
52067;SDS011;60237;52.338;21.228;2023-09-08T03:32:01;728.80;;;630.78;;
52067;SDS011;60237;52.338;21.228;2023-09-08T03:34:28;737.53;;;628.33;;
52067;SDS011;60237;52.338;21.228;2023-09-08T03:36:55;767.28;;;629.92;;
52067;SDS011;60237;52.338;21.228;2023-09-08T03:39:22;720.28;;;639.03;;
52067;SDS011;60237;52.338;21.228;2023-09-08T03:41:48;718.58;;;626.35;;
52067;SDS011;60237;52.338;21.228;2023-09-08T03:44:15;743.08;;;639.10;;
52067;SDS011;60237;52.338;21.228;2023-09-08T03:46:42;698.78;;;619.50;;
52067;SDS011;60237;52.338;21.228;2023-09-08T03:49:08;722.83;;;633.78;;
52067;SDS011;60237;52.338;21.228;2023-09-08T03:51:36;708.60;;;627.05;;
52067;SDS011;60237;52.338;21.228;2023-09-08T03:54:03;705.78;;;616.85;;
52067;SDS011;60237;52.338;21.228;2023-09-08T03:56:29;717.22;;;627.20;;
52067;SDS011;60237;52.338;21.228;2023-09-08T03:58:56;735.92;;;630.60;;
52067;SDS011;60237;52.338;21.228;2023-09-08T04:01:23;738.50;;;625.72;;
52067;SDS011;60237;52.338;21.228;2023-09-08T04:03:50;768.83;;;640.45;;
52067;SDS011;60237;52.338;21.228;2023-09-08T04:06:16;713.88;;;609.40;;
52067;SDS011;60237;52.338;21.228;2023-09-08T04:08:43;703.50;;;624.08;;
52067;SDS011;60237;52.338;21.228;2023-09-08T04:11:10;724.60;;;627.03;;
52067;SDS011;60237;52.338;21.228;2023-09-08T04:13:37;721.58;;;619.28;;
52067;SDS011;60237;52.338;21.228;2023-09-08T04:16:04;731.60;;;612.78;;
52067;SDS011;60237;52.338;21.228;2023-09-08T04:18:31;717.38;;;615.60;;
52067;SDS011;60237;52.338;21.228;2023-09-08T04:20:58;725.05;;;627.47;;
52067;SDS011;60237;52.338;21.228;2023-09-08T04:23:25;704.10;;;626.20;;
52067;SDS011;60237;52.338;21.228;2023-09-08T04:25:51;1007.17;;;632.00;;
52067;SDS011;60237;52.338;21.228;2023-09-08T04:28:19;746.45;;;618.58;;
52067;SDS011;60237;52.338;21.228;2023-09-08T04:30:45;940.17;;;647.55;;
52067;SDS011;60237;52.338;21.228;2023-09-08T04:33:12;761.28;;;632.75;;
52067;SDS011;60237;52.338;21.228;2023-09-08T04:35:39;769.60;;;640.97;;
52067;SDS011;60237;52.338;21.228;2023-09-08T04:38:06;749.67;;;649.50;;
52067;SDS011;60237;52.338;21.228;2023-09-08T04:40:32;734.13;;;628.83;;
52067;SDS011;60237;52.338;21.228;2023-09-08T04:42:59;765.92;;;651.65;;
52067;SDS011;60237;52.338;21.228;2023-09-08T04:45:26;719.47;;;635.05;;
52067;SDS011;60237;52.338;21.228;2023-09-08T04:47:52;733.28;;;647.60;;
52067;SDS011;60237;52.338;21.228;2023-09-08T04:50:20;733.40;;;646.88;;
52067;SDS011;60237;52.338;21.228;2023-09-08T04:52:46;732.35;;;653.50;;
52067;SDS011;60237;52.338;21.228;2023-09-08T04:55:14;771.70;;;665.60;;
52067;SDS011;60237;52.338;21.228;2023-09-08T04:57:40;757.33;;;675.50;;
52067;SDS011;60237;52.338;21.228;2023-09-08T05:00:07;765.65;;;684.33;;
52067;SDS011;60237;52.338;21.228;2023-09-08T05:02:34;788.75;;;706.40;;
52067;SDS011;60237;52.338;21.228;2023-09-08T05:05:02;808.80;;;722.35;;
52067;SDS011;60237;52.338;21.228;2023-09-08T05:07:30;813.45;;;730.22;;
52067;SDS011;60237;52.338;21.228;2023-09-08T05:09:57;838.05;;;747.90;;
52067;SDS011;60237;52.338;21.228;2023-09-08T05:12:27;861.83;;;735.00;;
52067;SDS011;60237;52.338;21.228;2023-09-08T05:14:54;829.28;;;743.05;;
52067;SDS011;60237;52.338;21.228;2023-09-08T05:17:26;824.08;;;738.05;;
52067;SDS011;60237;52.338;21.228;2023-09-08T05:19:53;816.08;;;732.80;;
52067;SDS011;60237;52.338;21.228;2023-09-08T05:22:20;818.38;;;736.17;;
52067;SDS011;60237;52.338;21.228;2023-09-08T05:24:48;830.33;;;743.53;;
52067;SDS011;60237;52.338;21.228;2023-09-08T05:27:14;826.53;;;742.08;;
52067;SDS011;60237;52.338;21.228;2023-09-08T05:29:41;815.63;;;733.10;;
52067;SDS011;60237;52.338;21.228;2023-09-08T05:32:07;842.17;;;758.50;;
52067;SDS011;60237;52.338;21.228;2023-09-08T05:34:34;832.45;;;746.25;;
52067;SDS011;60237;52.338;21.228;2023-09-08T05:37:01;848.90;;;757.97;;
52067;SDS011;60237;52.338;21.228;2023-09-08T05:39:27;840.65;;;755.72;;
52067;SDS011;60237;52.338;21.228;2023-09-08T05:41:55;889.45;;;751.90;;
52067;SDS011;60237;52.338;21.228;2023-09-08T05:44:22;892.65;;;761.90;;
52067;SDS011;60237;52.338;21.228;2023-09-08T05:46:49;855.10;;;766.38;;
52067;SDS011;60237;52.338;21.228;2023-09-08T05:49:16;968.60;;;784.50;;
52067;SDS011;60237;52.338;21.228;2023-09-08T05:51:44;866.08;;;773.35;;
52067;SDS011;60237;52.338;21.228;2023-09-08T05:54:12;865.90;;;777.50;;
52067;SDS011;60237;52.338;21.228;2023-09-08T05:56:38;949.10;;;783.05;;
52067;SDS011;60237;52.338;21.228;2023-09-08T05:59:06;881.60;;;789.20;;
52067;SDS011;60237;52.338;21.228;2023-09-08T06:01:33;901.20;;;803.55;;
52067;SDS011;60237;52.338;21.228;2023-09-08T06:04:01;900.55;;;808.95;;
52067;SDS011;60237;52.338;21.228;2023-09-08T06:06:29;914.80;;;827.20;;
52067;SDS011;60237;52.338;21.228;2023-09-08T06:08:57;934.92;;;846.53;;
52067;SDS011;60237;52.338;21.228;2023-09-08T06:11:25;965.83;;;876.35;;
52067;SDS011;60237;52.338;21.228;2023-09-08T06:13:51;968.17;;;877.65;;
52067;SDS011;60237;52.338;21.228;2023-09-08T06:16:21;984.83;;;891.00;;
52067;SDS011;60237;52.338;21.228;2023-09-08T06:18:48;1019.90;;;924.58;;
52067;SDS011;60237;52.338;21.228;2023-09-08T06:21:18;1032.40;;;938.88;;
52067;SDS011;60237;52.338;21.228;2023-09-08T06:23:44;1041.43;;;949.63;;
52067;SDS011;60237;52.338;21.228;2023-09-08T06:26:12;1065.75;;;971.58;;
52067;SDS011;60237;52.338;21.228;2023-09-08T06:28:39;1075.72;;;980.70;;
52067;SDS011;60237;52.338;21.228;2023-09-08T06:31:08;1094.70;;;993.60;;
52067;SDS011;60237;52.338;21.228;2023-09-08T06:33:36;1099.70;;;998.83;;
52067;SDS011;60237;52.338;21.228;2023-09-08T06:36:04;1104.47;;;999.17;;
52067;SDS011;60237;52.338;21.228;2023-09-08T06:38:31;1113.88;;;999.90;;
52067;SDS011;60237;52.338;21.228;2023-09-08T06:40:59;1114.07;;;999.90;;
52067;SDS011;60237;52.338;21.228;2023-09-08T06:43:27;1129.25;;;999.90;;
52067;SDS011;60237;52.338;21.228;2023-09-08T06:46:00;1126.53;;;999.90;;
52067;SDS011;60237;52.338;21.228;2023-09-08T06:48:29;1123.82;;;999.90;;
52067;SDS011;60237;52.338;21.228;2023-09-08T06:50:55;1127.97;;;999.90;;
52067;SDS011;60237;52.338;21.228;2023-09-08T06:53:24;1134.93;;;999.90;;
52067;SDS011;60237;52.338;21.228;2023-09-08T06:55:51;1122.72;;;999.90;;
52067;SDS011;60237;52.338;21.228;2023-09-08T06:58:18;1150.78;;;999.90;;
52067;SDS011;60237;52.338;21.228;2023-09-08T07:00:44;1144.97;;;999.90;;
52067;SDS011;60237;52.338;21.228;2023-09-08T07:03:12;1146.63;;;999.90;;
52067;SDS011;60237;52.338;21.228;2023-09-08T07:05:39;1158.75;;;999.90;;
52067;SDS011;60237;52.338;21.228;2023-09-08T07:08:06;1157.82;;;999.90;;
52067;SDS011;60237;52.338;21.228;2023-09-08T07:10:33;1159.82;;;999.90;;
52067;SDS011;60237;52.338;21.228;2023-09-08T07:12:59;1167.82;;;999.90;;
52067;SDS011;60237;52.338;21.228;2023-09-08T07:15:26;1166.47;;;999.90;;
52067;SDS011;60237;52.338;21.228;2023-09-08T07:17:53;1159.10;;;999.90;;
52067;SDS011;60237;52.338;21.228;2023-09-08T07:20:20;1159.43;;;999.90;;
52067;SDS011;60237;52.338;21.228;2023-09-08T07:22:47;1160.18;;;999.90;;
52067;SDS011;60237;52.338;21.228;2023-09-08T07:25:14;1166.07;;;999.90;;
52067;SDS011;60237;52.338;21.228;2023-09-08T07:27:41;1152.22;;;999.90;;
52067;SDS011;60237;52.338;21.228;2023-09-08T07:30:08;1158.80;;;999.90;;
52067;SDS011;60237;52.338;21.228;2023-09-08T07:32:35;1154.85;;;999.90;;
52067;SDS011;60237;52.338;21.228;2023-09-08T07:35:02;1169.43;;;999.90;;
52067;SDS011;60237;52.338;21.228;2023-09-08T07:37:28;1140.72;;;999.90;;
52067;SDS011;60237;52.338;21.228;2023-09-08T07:39:56;1147.70;;;999.90;;
52067;SDS011;60237;52.338;21.228;2023-09-08T07:42:22;1124.95;;;999.90;;
52067;SDS011;60237;52.338;21.228;2023-09-08T07:44:50;1122.00;;;999.90;;
52067;SDS011;60237;52.338;21.228;2023-09-08T07:47:17;1113.25;;;999.90;;
52067;SDS011;60237;52.338;21.228;2023-09-08T07:49:45;1104.80;;;999.90;;
52067;SDS011;60237;52.338;21.228;2023-09-08T07:52:11;1103.07;;;998.08;;
52067;SDS011;60237;52.338;21.228;2023-09-08T07:54:38;1091.03;;;995.05;;
52067;SDS011;60237;52.338;21.228;2023-09-08T07:57:04;1090.72;;;988.58;;
52067;SDS011;60237;52.338;21.228;2023-09-08T07:59:31;1089.40;;;993.40;;
52067;SDS011;60237;52.338;21.228;2023-09-08T08:02:00;1076.65;;;981.58;;
52067;SDS011;60237;52.338;21.228;2023-09-08T08:04:27;1085.22;;;985.80;;
52067;SDS011;60237;52.338;21.228;2023-09-08T08:06:54;1097.25;;;993.80;;
52067;SDS011;60237;52.338;21.228;2023-09-08T08:09:20;1084.53;;;988.33;;
52067;SDS011;60237;52.338;21.228;2023-09-08T08:11:47;1069.43;;;974.13;;
52067;SDS011;60237;52.338;21.228;2023-09-08T08:14:13;1064.75;;;971.10;;
52067;SDS011;60237;52.338;21.228;2023-09-08T08:16:40;1071.00;;;973.53;;
52067;SDS011;60237;52.338;21.228;2023-09-08T08:19:07;1080.22;;;984.95;;
52067;SDS011;60237;52.338;21.228;2023-09-08T08:21:33;1064.63;;;971.63;;
52067;SDS011;60237;52.338;21.228;2023-09-08T08:24:00;1062.90;;;970.25;;
52067;SDS011;60237;52.338;21.228;2023-09-08T08:26:26;1073.18;;;978.70;;
52067;SDS011;60237;52.338;21.228;2023-09-08T08:28:56;1066.00;;;972.33;;
52067;SDS011;60237;52.338;21.228;2023-09-08T08:31:22;1093.82;;;991.47;;
52067;SDS011;60237;52.338;21.228;2023-09-08T08:33:51;1072.70;;;973.25;;
52067;SDS011;60237;52.338;21.228;2023-09-08T08:36:17;1065.65;;;971.90;;
52067;SDS011;60237;52.338;21.228;2023-09-08T08:38:44;1070.57;;;975.75;;
52067;SDS011;60237;52.338;21.228;2023-09-08T08:41:11;1064.97;;;970.28;;
52067;SDS011;60237;52.338;21.228;2023-09-08T08:43:37;1068.72;;;974.90;;
52067;SDS011;60237;52.338;21.228;2023-09-08T08:46:04;1078.75;;;979.53;;
52067;SDS011;60237;52.338;21.228;2023-09-08T08:48:31;1058.85;;;965.42;;
52067;SDS011;60237;52.338;21.228;2023-09-08T08:50:58;1058.20;;;964.10;;
52067;SDS011;60237;52.338;21.228;2023-09-08T08:53:26;1058.82;;;966.33;;
52067;SDS011;60237;52.338;21.228;2023-09-08T08:55:53;1070.78;;;976.58;;
52067;SDS011;60237;52.338;21.228;2023-09-08T08:58:22;1059.47;;;966.90;;
52067;SDS011;60237;52.338;21.228;2023-09-08T09:00:52;1080.35;;;983.42;;
52067;SDS011;60237;52.338;21.228;2023-09-08T09:03:20;1076.45;;;976.85;;
52067;SDS011;60237;52.338;21.228;2023-09-08T09:05:47;1069.95;;;976.13;;
52067;SDS011;60237;52.338;21.228;2023-09-08T09:08:17;1071.43;;;977.00;;
52067;SDS011;60237;52.338;21.228;2023-09-08T09:10:45;1064.70;;;970.17;;
52067;SDS011;60237;52.338;21.228;2023-09-08T09:13:11;1079.70;;;984.78;;
52067;SDS011;60237;52.338;21.228;2023-09-08T09:15:38;1075.57;;;982.53;;
52067;SDS011;60237;52.338;21.228;2023-09-08T09:18:05;1078.40;;;983.33;;
52067;SDS011;60237;52.338;21.228;2023-09-08T09:20:32;1065.78;;;971.38;;
52067;SDS011;60237;52.338;21.228;2023-09-08T09:22:59;1073.32;;;979.17;;
52067;SDS011;60237;52.338;21.228;2023-09-08T09:25:27;1069.82;;;977.28;;
52067;SDS011;60237;52.338;21.228;2023-09-08T09:27:55;1076.63;;;977.63;;
52067;SDS011;60237;52.338;21.228;2023-09-08T09:30:23;1076.72;;;982.13;;
52067;SDS011;60237;52.338;21.228;2023-09-08T09:33:01;1072.70;;;979.67;;
52067;SDS011;60237;52.338;21.228;2023-09-08T09:35:41;1074.75;;;980.55;;
52067;SDS011;60237;52.338;21.228;2023-09-08T09:38:08;1082.07;;;987.65;;
52067;SDS011;60237;52.338;21.228;2023-09-08T09:40:35;1082.35;;;986.97;;
52067;SDS011;60237;52.338;21.228;2023-09-08T09:43:01;1095.75;;;995.20;;
52067;SDS011;60237;52.338;21.228;2023-09-08T09:45:32;1089.30;;;993.78;;
52067;SDS011;60237;52.338;21.228;2023-09-08T09:47:58;1081.63;;;986.72;;
52067;SDS011;60237;52.338;21.228;2023-09-08T09:50:32;1078.75;;;985.80;;
52067;SDS011;60237;52.338;21.228;2023-09-08T09:53:07;1085.50;;;989.38;;
52067;SDS011;60237;52.338;21.228;2023-09-08T09:55:34;1084.03;;;989.20;;
52067;SDS011;60237;52.338;21.228;2023-09-08T09:58:02;1097.95;;;996.15;;
52067;SDS011;60237;52.338;21.228;2023-09-08T10:00:30;1092.35;;;996.92;;
52067;SDS011;60237;52.338;21.228;2023-09-08T10:02:59;1090.90;;;995.80;;
52067;SDS011;60237;52.338;21.228;2023-09-08T10:05:26;1090.43;;;995.58;;
52067;SDS011;60237;52.338;21.228;2023-09-08T10:07:53;1096.40;;;997.15;;
52067;SDS011;60237;52.338;21.228;2023-09-08T10:10:20;1089.00;;;993.75;;
52067;SDS011;60237;52.338;21.228;2023-09-08T10:12:53;1098.80;;;999.90;;
52067;SDS011;60237;52.338;21.228;2023-09-08T10:15:21;1103.88;;;999.90;;
52067;SDS011;60237;52.338;21.228;2023-09-08T10:17:54;1104.82;;;999.28;;
52067;SDS011;60237;52.338;21.228;2023-09-08T10:20:26;1105.45;;;999.90;;
52067;SDS011;60237;52.338;21.228;2023-09-08T10:22:54;1104.60;;;995.53;;
52067;SDS011;60237;52.338;21.228;2023-09-08T10:25:24;1106.28;;;999.90;;
52067;SDS011;60237;52.338;21.228;2023-09-08T10:27:51;1105.70;;;999.45;;
52067;SDS011;60237;52.338;21.228;2023-09-08T10:30:19;1108.47;;;999.90;;
52067;SDS011;60237;52.338;21.228;2023-09-08T10:32:48;1119.10;;;999.90;;
52067;SDS011;60237;52.338;21.228;2023-09-08T10:35:16;1123.45;;;999.90;;
52067;SDS011;60237;52.338;21.228;2023-09-08T10:37:43;1102.57;;;997.95;;
52067;SDS011;60237;52.338;21.228;2023-09-08T10:42:46;1110.78;;;999.90;;
52067;SDS011;60237;52.338;21.228;2023-09-08T10:45:16;1105.53;;;999.90;;
52067;SDS011;60237;52.338;21.228;2023-09-08T10:50:19;1103.47;;;999.90;;
52067;SDS011;60237;52.338;21.228;2023-09-08T10:53:04;1107.93;;;999.90;;
52067;SDS011;60237;52.338;21.228;2023-09-08T11:01:13;1118.82;;;999.90;;
52067;SDS011;60237;52.338;21.228;2023-09-08T11:06:08;1116.45;;;999.90;;
52067;SDS011;60237;52.338;21.228;2023-09-08T11:08:37;1119.13;;;999.90;;
52067;SDS011;60237;52.338;21.228;2023-09-08T11:11:04;1125.45;;;999.90;;
52067;SDS011;60237;52.338;21.228;2023-09-08T11:13:30;1132.53;;;999.90;;
52067;SDS011;60237;52.338;21.228;2023-09-08T11:15:57;1138.65;;;999.90;;
52067;SDS011;60237;52.338;21.228;2023-09-08T11:18:30;1117.10;;;999.90;;
52067;SDS011;60237;52.338;21.228;2023-09-08T11:20:57;1116.90;;;999.90;;
52067;SDS011;60237;52.338;21.228;2023-09-08T11:23:24;1114.88;;;999.90;;
52067;SDS011;60237;52.338;21.228;2023-09-08T11:25:52;1110.60;;;999.90;;
52067;SDS011;60237;52.338;21.228;2023-09-08T11:28:19;1111.18;;;999.90;;
52067;SDS011;60237;52.338;21.228;2023-09-08T11:30:47;1105.22;;;999.90;;
52067;SDS011;60237;52.338;21.228;2023-09-08T11:33:15;1112.70;;;999.90;;
52067;SDS011;60237;52.338;21.228;2023-09-08T11:35:41;1099.15;;;999.47;;
52067;SDS011;60237;52.338;21.228;2023-09-08T11:38:10;1108.95;;;999.90;;
52067;SDS011;60237;52.338;21.228;2023-09-08T11:40:36;1107.45;;;999.90;;
52067;SDS011;60237;52.338;21.228;2023-09-08T11:43:04;1103.90;;;999.90;;
52067;SDS011;60237;52.338;21.228;2023-09-08T11:45:33;1110.15;;;999.90;;
52067;SDS011;60237;52.338;21.228;2023-09-08T11:48:00;1102.65;;;999.72;;
52067;SDS011;60237;52.338;21.228;2023-09-08T11:50:27;1113.53;;;999.90;;
52067;SDS011;60237;52.338;21.228;2023-09-08T11:52:54;1109.28;;;999.90;;
52067;SDS011;60237;52.338;21.228;2023-09-08T11:55:21;1122.95;;;999.90;;
52067;SDS011;60237;52.338;21.228;2023-09-08T11:57:54;1111.35;;;999.90;;
52067;SDS011;60237;52.338;21.228;2023-09-08T12:00:23;1115.72;;;999.90;;
52067;SDS011;60237;52.338;21.228;2023-09-08T12:02:52;1107.25;;;999.90;;
52067;SDS011;60237;52.338;21.228;2023-09-08T12:05:22;1103.35;;;999.90;;
52067;SDS011;60237;52.338;21.228;2023-09-08T12:07:50;1113.45;;;999.90;;
52067;SDS011;60237;52.338;21.228;2023-09-08T12:10:17;1106.32;;;999.90;;
52067;SDS011;60237;52.338;21.228;2023-09-08T12:12:45;1103.43;;;999.88;;
52067;SDS011;60237;52.338;21.228;2023-09-08T12:15:12;1121.05;;;999.90;;
52067;SDS011;60237;52.338;21.228;2023-09-08T12:17:55;1098.40;;;999.22;;
52067;SDS011;60237;52.338;21.228;2023-09-08T12:20:22;1110.38;;;999.90;;
52067;SDS011;60237;52.338;21.228;2023-09-08T12:22:49;1138.15;;;999.90;;
52067;SDS011;60237;52.338;21.228;2023-09-08T12:25:16;1120.30;;;999.90;;
52067;SDS011;60237;52.338;21.228;2023-09-08T12:27:44;1111.13;;;999.90;;
52067;SDS011;60237;52.338;21.228;2023-09-08T12:30:15;1121.65;;;999.90;;
52067;SDS011;60237;52.338;21.228;2023-09-08T12:32:44;1117.32;;;999.90;;
52067;SDS011;60237;52.338;21.228;2023-09-08T12:35:11;1131.07;;;999.90;;
52067;SDS011;60237;52.338;21.228;2023-09-08T12:37:38;1109.13;;;999.90;;
52067;SDS011;60237;52.338;21.228;2023-09-08T12:40:05;1124.93;;;999.90;;
52067;SDS011;60237;52.338;21.228;2023-09-08T12:42:31;1116.63;;;999.90;;
52067;SDS011;60237;52.338;21.228;2023-09-08T12:45:02;1133.45;;;999.90;;
52067;SDS011;60237;52.338;21.228;2023-09-08T12:47:29;1129.85;;;999.90;;
52067;SDS011;60237;52.338;21.228;2023-09-08T12:49:56;1116.10;;;999.90;;
52067;SDS011;60237;52.338;21.228;2023-09-08T12:52:22;1113.63;;;999.90;;
52067;SDS011;60237;52.338;21.228;2023-09-08T12:54:49;1121.97;;;999.90;;
52067;SDS011;60237;52.338;21.228;2023-09-08T12:57:15;1132.90;;;999.90;;
52067;SDS011;60237;52.338;21.228;2023-09-08T12:59:42;1130.90;;;999.90;;
52067;SDS011;60237;52.338;21.228;2023-09-08T13:02:08;1126.70;;;999.90;;
52067;SDS011;60237;52.338;21.228;2023-09-08T13:04:35;1119.68;;;999.90;;
52067;SDS011;60237;52.338;21.228;2023-09-08T13:07:01;1140.60;;;999.90;;
52067;SDS011;60237;52.338;21.228;2023-09-08T13:09:28;1129.57;;;999.90;;
52067;SDS011;60237;52.338;21.228;2023-09-08T13:11:54;1121.57;;;999.90;;
52067;SDS011;60237;52.338;21.228;2023-09-08T13:14:21;1133.50;;;999.90;;
52067;SDS011;60237;52.338;21.228;2023-09-08T13:16:47;1128.05;;;999.90;;
52067;SDS011;60237;52.338;21.228;2023-09-08T13:19:14;1130.85;;;999.90;;
52067;SDS011;60237;52.338;21.228;2023-09-08T13:21:41;1134.18;;;999.90;;
52067;SDS011;60237;52.338;21.228;2023-09-08T13:24:07;1191.07;;;999.90;;
52067;SDS011;60237;52.338;21.228;2023-09-08T13:26:34;1133.22;;;999.90;;
52067;SDS011;60237;52.338;21.228;2023-09-08T13:29:01;1137.68;;;999.90;;
52067;SDS011;60237;52.338;21.228;2023-09-08T13:31:27;1151.70;;;999.90;;
52067;SDS011;60237;52.338;21.228;2023-09-08T13:33:54;1133.63;;;999.90;;
52067;SDS011;60237;52.338;21.228;2023-09-08T13:36:21;1131.38;;;999.90;;
52067;SDS011;60237;52.338;21.228;2023-09-08T13:38:47;1129.57;;;999.90;;
52067;SDS011;60237;52.338;21.228;2023-09-08T13:41:14;1158.50;;;999.90;;
52067;SDS011;60237;52.338;21.228;2023-09-08T13:43:40;1124.05;;;999.90;;
52067;SDS011;60237;52.338;21.228;2023-09-08T13:46:10;1138.00;;;999.90;;
52067;SDS011;60237;52.338;21.228;2023-09-08T13:48:37;1132.18;;;999.90;;
52067;SDS011;60237;52.338;21.228;2023-09-08T13:51:04;1133.20;;;999.90;;
52067;SDS011;60237;52.338;21.228;2023-09-08T13:53:32;1133.20;;;999.90;;
52067;SDS011;60237;52.338;21.228;2023-09-08T13:56:02;1125.72;;;999.90;;
52067;SDS011;60237;52.338;21.228;2023-09-08T13:58:34;1127.97;;;999.90;;
52067;SDS011;60237;52.338;21.228;2023-09-08T14:01:15;1139.28;;;999.90;;
52067;SDS011;60237;52.338;21.228;2023-09-08T14:03:45;1127.88;;;999.90;;
52067;SDS011;60237;52.338;21.228;2023-09-08T14:06:15;1115.35;;;999.90;;